createdAt,value
2022-09-04T00:00:03.729Z,1.60
2022-09-04T00:02:57.291Z,1.98
2022-09-04T00:05:33.728Z,2.13
2022-09-04T00:08:19.580Z,1.73
2022-09-04T00:13:21.680Z,2.10
2022-09-04T00:15:56.735Z,2.20
2022-09-04T00:18:35.554Z,1.70
2022-09-04T00:21:14.937Z,1.80
2022-09-04T00:23:45.076Z,1.63
2022-09-04T00:26:12.235Z,1.65
2022-09-04T00:28:42.077Z,1.70
2022-09-04T00:31:25.956Z,1.98
2022-09-04T00:33:55.933Z,1.55
2022-09-04T00:36:25.757Z,2.13
2022-09-04T00:38:56.430Z,2.15
2022-09-04T00:41:42.247Z,1.95
2022-09-04T00:44:18.810Z,1.90
2022-09-04T00:46:52.210Z,1.45
2022-09-04T00:49:44.919Z,1.75
2022-09-04T00:52:18.029Z,2.00
2022-09-04T00:54:52.768Z,1.50
2022-09-04T00:57:25.940Z,2.40
2022-09-04T01:00:06.099Z,1.95
2022-09-04T01:02:36.313Z,1.73
2022-09-04T01:05:19.843Z,1.60
2022-09-04T01:07:47.294Z,1.92
2022-09-04T01:10:25.662Z,1.70
2022-09-04T01:12:58.250Z,1.80
2022-09-04T01:15:32.393Z,1.95
2022-09-04T01:18:17.664Z,1.90
2022-09-04T01:20:44.904Z,1.75
2022-09-04T01:23:30.638Z,1.63
2022-09-04T01:26:09.963Z,2.30
2022-09-04T01:28:52.421Z,1.90
2022-09-04T01:31:32.647Z,1.83
2022-09-04T01:34:15.108Z,1.90
2022-09-04T01:36:46.465Z,1.92
2022-09-04T01:39:13.993Z,1.83
2022-09-04T01:41:47.638Z,1.77
2022-09-04T01:44:15.010Z,1.80
2022-09-04T01:46:54.460Z,1.83
2022-09-04T01:49:27.828Z,2.10
2022-09-04T01:52:03.970Z,2.20
2022-09-04T01:54:31.240Z,1.85
2022-09-04T01:57:01.407Z,2.33
2022-09-04T01:59:35.466Z,2.13
2022-09-04T02:02:13.405Z,1.90
2022-09-04T02:04:47.652Z,2.40
2022-09-04T02:07:24.945Z,1.90
2022-09-04T02:10:04.430Z,1.83
2022-09-04T02:12:37.993Z,2.10
2022-09-04T02:15:30.769Z,2.00
2022-09-04T02:17:57.920Z,2.00
2022-09-04T02:20:26.233Z,2.03
2022-09-04T02:23:05.651Z,2.30
2022-09-04T02:25:39.300Z,2.30
2022-09-04T02:28:09.356Z,2.45
2022-09-04T02:30:59.513Z,2.58
2022-09-04T02:33:32.522Z,2.45
2022-09-04T02:36:03.349Z,2.28
2022-09-04T02:38:37.900Z,2.10
2022-09-04T02:41:31.200Z,2.42
2022-09-04T02:44:15.406Z,2.33
2022-09-04T02:46:51.472Z,2.00
2022-09-04T02:49:29.187Z,2.08
2022-09-04T02:52:03.575Z,2.38
2022-09-04T02:54:48.572Z,2.47
2022-09-04T02:57:27.350Z,2.33
2022-09-04T03:00:21.095Z,2.17
2022-09-04T03:02:48.810Z,2.08
2022-09-04T03:05:24.527Z,3.28
2022-09-04T03:07:57.793Z,1.77
2022-09-04T03:10:51.022Z,2.05
2022-09-04T03:13:28.894Z,2.65
2022-09-04T03:16:17.280Z,2.17
2022-09-04T03:18:50.318Z,2.10
2022-09-04T03:21:21.686Z,2.17
2022-09-04T03:24:04.282Z,1.90
2022-09-04T03:26:38.381Z,2.20
2022-09-04T03:29:24.675Z,2.15
2022-09-04T03:31:59.041Z,2.47
2022-09-04T03:34:48.794Z,2.22
2022-09-04T03:37:18.950Z,1.95
2022-09-04T03:39:57.251Z,1.80
2022-09-04T03:42:27.458Z,2.08
2022-09-04T03:45:03.822Z,2.00
2022-09-04T03:47:30.977Z,1.98
2022-09-04T03:50:04.179Z,2.47
2022-09-04T03:52:51.584Z,2.10
2022-09-04T03:55:34.389Z,2.10
2022-09-04T03:58:01.524Z,1.98
2022-09-04T04:00:30.783Z,2.42
2022-09-04T04:03:04.109Z,2.63
2022-09-04T04:05:52.516Z,2.45
2022-09-04T04:08:41.782Z,2.13
2022-09-04T04:11:24.298Z,2.50
2022-09-04T04:13:58.098Z,2.30
2022-09-04T04:16:44.747Z,2.50
2022-09-04T04:19:40.682Z,2.30
2022-09-04T04:22:20.256Z,2.10
2022-09-04T04:24:48.256Z,2.40
2022-09-04T04:27:25.756Z,2.33
2022-09-04T04:29:55.906Z,2.00
2022-09-04T04:32:33.258Z,2.45
2022-09-04T04:35:08.848Z,2.20
2022-09-04T04:40:15.793Z,2.20
2022-09-04T04:42:42.958Z,2.58
2022-09-04T04:45:34.444Z,2.20
2022-09-04T04:48:20.386Z,2.70
2022-09-04T04:53:14.919Z,2.72
2022-09-04T04:55:51.098Z,2.47
2022-09-04T04:58:22.338Z,2.65
2022-09-04T05:01:16.052Z,2.40
2022-09-04T05:03:56.229Z,2.42
2022-09-04T05:06:36.074Z,2.17
2022-09-04T05:09:06.193Z,2.50
2022-09-04T05:11:54.137Z,2.80
2022-09-04T05:14:40.462Z,2.67
2022-09-04T05:17:26.629Z,2.95
2022-09-04T05:20:15.491Z,2.20
2022-09-04T05:22:52.842Z,2.38
2022-09-04T05:25:32.364Z,2.58
2022-09-04T05:28:02.370Z,2.80
2022-09-04T05:30:32.276Z,2.67
2022-09-04T05:33:04.705Z,2.58
2022-09-04T05:35:35.641Z,2.38
2022-09-04T05:38:12.037Z,2.40
2022-09-04T05:40:59.523Z,2.53
2022-09-04T05:43:34.782Z,2.20
2022-09-04T05:46:06.031Z,2.70
2022-09-04T05:48:41.481Z,2.40
2022-09-04T05:51:18.555Z,2.10
2022-09-04T05:54:04.632Z,2.53
2022-09-04T05:56:52.026Z,2.30
2022-09-04T05:59:19.245Z,2.42
2022-09-04T06:01:52.478Z,2.35
2022-09-04T06:04:38.321Z,2.22
2022-09-04T06:07:05.489Z,2.08
2022-09-04T06:09:39.965Z,2.30
2022-09-04T06:12:21.496Z,2.50
2022-09-04T06:14:57.016Z,2.75
2022-09-04T06:20:06.676Z,2.50
2022-09-04T06:22:55.744Z,2.60
2022-09-04T06:25:37.126Z,3.08
2022-09-04T06:28:07.301Z,2.65
2022-09-04T06:30:54.352Z,2.45
2022-09-04T06:33:36.227Z,2.75
2022-09-04T06:36:06.561Z,3.08
2022-09-04T06:38:33.693Z,2.33
2022-09-04T06:41:08.664Z,2.53
2022-09-04T06:43:41.762Z,2.58
2022-09-04T06:46:09.200Z,2.80
2022-09-04T06:48:42.200Z,2.72
2022-09-04T06:51:15.382Z,2.80
2022-09-04T06:54:01.521Z,2.72
2022-09-04T06:56:31.672Z,2.80
2022-09-04T06:59:01.324Z,2.58
2022-09-04T07:01:30.070Z,2.72
2022-09-04T07:04:03.450Z,2.97
2022-09-04T07:06:30.744Z,2.78
2022-09-04T07:09:03.941Z,2.42
2022-09-04T07:11:36.944Z,3.20
2022-09-04T07:14:11.824Z,3.20
2022-09-04T07:16:41.989Z,3.03
2022-09-04T07:19:15.710Z,2.85
2022-09-04T07:21:58.932Z,2.42
2022-09-04T07:24:47.354Z,2.88
2022-09-04T07:27:34.902Z,2.53
2022-09-04T07:30:08.796Z,2.90
2022-09-04T07:32:38.797Z,2.55
2022-09-04T07:35:07.992Z,4.05
2022-09-04T07:37:56.596Z,2.80
2022-09-04T07:40:27.909Z,5.10
2022-09-04T07:43:14.310Z,2.90
2022-09-04T07:45:51.147Z,2.70
2022-09-04T07:48:37.664Z,4.05
2022-09-04T07:51:12.167Z,3.28
2022-09-04T07:53:58.697Z,3.00
2022-09-04T07:56:35.165Z,2.40
2022-09-04T07:59:21.219Z,2.10
2022-09-04T08:01:51.447Z,2.63
2022-09-04T08:04:38.212Z,2.75
2022-09-04T08:07:11.515Z,2.50
2022-09-04T08:10:08.136Z,3.05
2022-09-04T08:12:35.280Z,2.53
2022-09-04T08:15:02.813Z,2.88
2022-09-04T08:17:43.166Z,2.58
2022-09-04T08:20:19.650Z,2.60
2022-09-04T08:23:19.120Z,2.70
2022-09-04T08:26:14.245Z,2.75
2022-09-04T08:28:56.991Z,2.40
2022-09-04T08:31:30.507Z,2.50
2022-09-04T08:34:08.225Z,2.70
2022-09-04T08:37:01.624Z,3.15
2022-09-04T08:39:47.748Z,2.70
2022-09-04T08:42:33.420Z,2.53
2022-09-04T08:47:28.415Z,1.98
2022-09-04T08:50:14.754Z,2.60
2022-09-04T08:52:53.883Z,2.30
2022-09-04T08:55:27.252Z,2.20
2022-09-04T08:58:06.637Z,2.75
2022-09-04T09:00:34.625Z,2.35
2022-09-04T09:03:21.999Z,2.78
2022-09-04T09:06:08.068Z,2.20
2022-09-04T09:09:07.817Z,2.63
2022-09-04T09:11:34.953Z,2.53
2022-09-04T09:14:21.096Z,2.75
2022-09-04T09:16:51.289Z,2.63
2022-09-04T09:19:24.364Z,2.53
2022-09-04T09:22:11.057Z,2.50
2022-09-04T09:24:39.938Z,2.60
2022-09-04T09:27:07.082Z,2.47
2022-09-04T09:29:53.007Z,2.42
2022-09-04T09:32:39.803Z,2.50
2022-09-04T09:35:09.876Z,2.35
2022-09-04T09:37:45.823Z,2.20
2022-09-04T09:40:21.837Z,2.72
2022-09-04T09:42:49.456Z,2.33
2022-09-04T09:45:28.434Z,2.10
2022-09-04T09:47:55.560Z,2.10
2022-09-04T09:50:31.891Z,2.25
2022-09-04T09:53:01.904Z,2.35
2022-09-04T09:55:29.144Z,1.90
2022-09-04T09:57:59.126Z,2.10
2022-09-04T10:00:30.549Z,1.98
2022-09-04T10:03:24.381Z,2.08
2022-09-04T10:06:13.373Z,2.42
2022-09-04T10:08:59.400Z,1.80
2022-09-04T10:11:45.029Z,2.33
2022-09-04T10:14:31.009Z,2.20
2022-09-04T10:17:07.286Z,2.50
2022-09-04T10:19:53.763Z,2.30
2022-09-04T10:22:20.937Z,2.22
2022-09-04T10:24:57.816Z,2.28
2022-09-04T10:27:44.538Z,1.90
2022-09-04T10:30:22.443Z,2.25
2022-09-04T10:33:11.699Z,2.53
2022-09-04T10:35:39.296Z,2.22
2022-09-04T10:38:22.559Z,2.00
2022-09-04T10:41:08.991Z,1.95
2022-09-04T10:43:55.072Z,2.10
2022-09-04T10:46:27.461Z,2.38
2022-09-04T10:49:00.917Z,2.60
2022-09-04T10:51:31.495Z,2.22
2022-09-04T10:54:07.820Z,2.20
2022-09-04T10:56:53.762Z,2.13
2022-09-04T10:59:27.752Z,2.30
2022-09-04T11:02:13.550Z,1.92
2022-09-04T11:04:45.840Z,2.05
2022-09-04T11:07:36.637Z,2.20
2022-09-04T11:10:04.391Z,2.47
2022-09-04T11:12:34.769Z,2.38
2022-09-04T11:15:01.964Z,2.10
2022-09-04T11:18:07.951Z,1.95
2022-09-04T11:20:53.530Z,1.73
2022-09-04T11:23:39.349Z,1.80
2022-09-04T11:26:13.934Z,1.92
2022-09-04T11:28:57.111Z,2.13
2022-09-04T11:31:31.937Z,2.00
2022-09-04T11:34:20.057Z,1.98
2022-09-04T11:37:05.802Z,1.98
2022-09-04T11:39:51.820Z,2.30
2022-09-04T11:42:31.135Z,2.58
2022-09-04T11:45:27.112Z,2.17
2022-09-04T11:47:58.212Z,2.20
2022-09-04T11:50:57.275Z,2.08
2022-09-04T11:53:24.534Z,2.42
2022-09-04T11:56:00.636Z,2.17
2022-09-04T11:58:28.251Z,2.00
2022-09-04T12:01:04.010Z,2.35
2022-09-04T12:03:49.841Z,1.95
2022-09-04T12:06:23.145Z,2.05
2022-09-04T12:09:08.409Z,1.95
2022-09-04T12:11:54.978Z,1.90
2022-09-04T12:14:25.790Z,1.90
2022-09-04T12:17:05.545Z,1.88
2022-09-04T12:19:51.682Z,1.92
2022-09-04T12:22:41.758Z,2.25
2022-09-04T12:25:27.838Z,1.85
2022-09-04T12:28:01.072Z,1.75
2022-09-04T12:30:55.347Z,2.17
2022-09-04T12:33:28.380Z,2.15
2022-09-04T12:36:00.592Z,1.98
2022-09-04T12:38:31.044Z,1.48
2022-09-04T12:41:02.753Z,1.95
2022-09-04T12:43:36.906Z,1.65
2022-09-04T12:46:10.762Z,1.80
2022-09-04T12:48:57.029Z,2.05
2022-09-04T12:51:25.191Z,1.63
2022-09-04T12:53:58.511Z,1.75
2022-09-04T12:56:28.627Z,1.52
2022-09-04T12:58:55.751Z,1.42
2022-09-04T13:01:45.079Z,1.80
2022-09-04T13:04:28.734Z,1.33
2022-09-04T13:07:31.218Z,1.70
2022-09-04T13:10:01.477Z,1.30
2022-09-04T13:12:31.391Z,1.80
2022-09-04T13:15:19.512Z,1.60
2022-09-04T13:18:00.096Z,1.35
2022-09-04T13:20:40.300Z,1.48
2022-09-04T13:23:16.327Z,1.52
2022-09-04T13:25:53.774Z,1.38
2022-09-04T13:28:35.925Z,1.27
2022-09-04T13:31:23.160Z,1.52
2022-09-04T13:34:09.833Z,1.88
2022-09-04T13:36:40.700Z,2.92
2022-09-04T13:39:07.869Z,2.25
2022-09-04T13:41:42.138Z,1.67
2022-09-04T13:44:19.801Z,2.10
2022-09-04T13:47:02.933Z,1.55
2022-09-04T13:49:35.698Z,1.60
2022-09-04T13:52:13.081Z,1.35
2022-09-04T13:54:43.878Z,1.70
2022-09-04T13:57:14.883Z,1.50
2022-09-04T13:59:44.327Z,1.70
2022-09-04T14:02:14.723Z,1.75
2022-09-04T14:04:47.973Z,1.45
2022-09-04T14:07:19.719Z,1.80
2022-09-04T14:09:50.287Z,1.90
2022-09-04T14:12:20.251Z,1.50
2022-09-04T14:14:50.160Z,1.75
2022-09-04T14:17:26.930Z,1.50
2022-09-04T14:19:59.982Z,1.60
2022-09-04T14:22:27.149Z,1.70
2022-09-04T14:25:11.655Z,1.83
2022-09-04T14:27:48.166Z,1.40
2022-09-04T14:30:17.081Z,1.60
2022-09-04T14:33:07.344Z,1.70
2022-09-04T14:35:59.530Z,1.63
2022-09-04T14:38:37.335Z,2.00
2022-09-04T14:41:36.250Z,1.70
2022-09-04T14:44:21.858Z,1.60
2022-09-04T14:46:52.102Z,1.60
2022-09-04T14:49:22.043Z,1.50
2022-09-04T14:51:50.356Z,1.75
2022-09-04T14:54:26.215Z,1.60
2022-09-04T14:56:56.764Z,1.60
2022-09-04T14:59:26.244Z,1.63
2022-09-04T15:01:59.116Z,2.00
2022-09-04T15:04:32.494Z,1.88
2022-09-04T15:07:11.633Z,1.75
2022-09-04T15:09:41.521Z,2.00
2022-09-04T15:12:32.134Z,2.15
2022-09-04T15:15:18.017Z,2.13
2022-09-04T15:18:01.833Z,2.00
2022-09-04T15:20:30.773Z,2.00
2022-09-04T15:23:00.197Z,2.58
2022-09-04T15:26:01.700Z,1.90
2022-09-04T15:28:38.493Z,2.22
2022-09-04T15:31:15.495Z,2.33
2022-09-04T15:33:44.405Z,2.17
2022-09-04T15:36:15.875Z,1.85
2022-09-04T15:38:48.096Z,2.22
2022-09-04T15:41:34.558Z,2.33
2022-09-04T15:44:09.068Z,2.05
2022-09-04T15:46:42.345Z,1.92
2022-09-04T15:49:12.633Z,2.10
2022-09-04T15:51:51.715Z,1.63
2022-09-04T15:54:37.701Z,1.92
2022-09-04T15:57:08.471Z,1.92
2022-09-04T15:59:44.981Z,2.88
2022-09-04T16:02:20.886Z,3.15
2022-09-04T16:04:52.676Z,3.92
2022-09-04T16:07:34.367Z,3.42
2022-09-04T16:10:26.842Z,2.28
2022-09-04T16:13:02.643Z,3.22
2022-09-04T16:15:33.925Z,3.25
2022-09-04T16:18:03.103Z,2.08
2022-09-04T16:20:35.305Z,1.70
2022-09-04T16:23:08.059Z,2.03
2022-09-04T16:25:36.859Z,1.80
2022-09-04T16:28:08.071Z,1.92
2022-09-04T16:30:38.383Z,2.03
2022-09-04T16:33:20.470Z,2.22
2022-09-04T16:35:56.110Z,1.58
2022-09-04T16:38:29.570Z,1.90
2022-09-04T16:41:11.056Z,1.90
2022-09-04T16:43:39.041Z,1.70
2022-09-04T16:46:16.438Z,2.08
2022-09-04T16:48:51.983Z,2.10
2022-09-04T16:51:41.507Z,1.90
2022-09-04T16:54:12.163Z,1.75
2022-09-04T16:56:42.836Z,2.08
2022-09-04T16:59:22.021Z,2.17
2022-09-04T17:01:49.255Z,2.03
2022-09-04T17:04:26.312Z,2.40
2022-09-04T17:07:00.141Z,2.03
2022-09-04T17:09:32.243Z,2.15
2022-09-04T17:12:03.861Z,1.98
2022-09-04T17:14:37.174Z,2.22
2022-09-04T17:17:30.672Z,2.38
2022-09-04T17:20:09.886Z,1.90
2022-09-04T17:28:57.772Z,2.60
2022-09-04T17:29:03.574Z,2.08
2022-09-04T17:29:12.274Z,2.10
2022-09-04T17:31:34.420Z,2.22
2022-09-04T17:39:01.208Z,2.10
2022-09-04T17:40:35.546Z,2.00
2022-09-04T17:40:49.124Z,2.45
2022-09-04T17:42:35.780Z,2.10
2022-09-04T17:45:22.318Z,2.10
2022-09-04T17:48:02.142Z,2.28
2022-09-04T17:50:29.655Z,2.25
2022-09-04T17:53:01.085Z,2.30
2022-09-04T17:55:29.666Z,2.55
2022-09-04T17:57:56.861Z,2.17
2022-09-04T18:00:27.142Z,2.53
2022-09-04T18:03:05.011Z,2.10
2022-09-04T18:05:53.594Z,2.08
2022-09-04T18:08:29.718Z,1.95
2022-09-04T18:10:59.848Z,2.35
2022-09-04T18:13:37.791Z,2.30
2022-09-04T18:16:07.445Z,2.28
2022-09-04T18:18:44.297Z,2.72
2022-09-04T18:21:15.986Z,3.75
2022-09-04T18:24:00.300Z,2.20
2022-09-04T18:26:40.036Z,2.47
2022-09-04T18:30:34.015Z,2.63
2022-09-04T18:37:06.468Z,2.47
2022-09-04T18:37:23.608Z,2.15
2022-09-04T18:38:20.463Z,2.20
2022-09-04T18:43:50.951Z,2.55
2022-09-04T18:50:23.951Z,2.78
2022-09-04T18:50:40.778Z,2.37
2022-09-04T18:50:52.096Z,2.25
2022-09-04T18:52:45.021Z,2.78
2022-09-04T18:55:15.654Z,2.15
2022-09-04T18:58:01.673Z,2.20
2022-09-04T19:00:31.346Z,2.78
2022-09-04T19:03:08.217Z,2.70
2022-09-04T19:05:44.811Z,2.85
2022-09-04T19:08:15.625Z,2.70
2022-09-04T19:10:53.272Z,2.60
2022-09-04T19:13:36.097Z,2.55
2022-09-04T19:16:06.054Z,2.60
2022-09-04T19:18:33.851Z,2.97
2022-09-04T19:21:11.601Z,2.85
2022-09-04T19:23:54.020Z,2.67
2022-09-04T19:26:48.470Z,3.13
2022-09-04T19:29:18.514Z,3.20
2022-09-04T19:31:55.238Z,3.20
2022-09-04T19:34:29.241Z,2.80
2022-09-04T19:37:23.207Z,2.80
2022-09-04T19:46:03.655Z,2.67
2022-09-04T19:46:05.892Z,2.72
2022-09-04T19:46:17.790Z,2.78
2022-09-04T19:49:37.963Z,2.90
2022-09-04T19:53:31.986Z,2.70
2022-09-04T19:54:40.893Z,3.13
2022-09-04T19:57:31.603Z,3.17
2022-09-04T20:00:38.274Z,2.65
2022-09-04T20:02:59.329Z,2.80
2022-09-04T20:05:33.730Z,2.58
2022-09-04T20:08:03.962Z,2.42
2022-09-04T20:10:32.221Z,2.83
2022-09-04T20:13:02.697Z,3.20
2022-09-04T20:15:31.883Z,2.53
2022-09-04T20:18:04.095Z,2.70
2022-09-04T20:20:49.784Z,3.17
2022-09-04T20:23:35.340Z,2.92
2022-09-04T20:26:17.901Z,2.83
2022-09-04T20:28:59.229Z,2.63
2022-09-04T20:31:45.207Z,2.72
2022-09-04T20:34:27.338Z,2.83
2022-09-04T20:37:01.969Z,2.80
2022-09-04T20:39:36.226Z,2.97
2022-09-04T20:42:10.379Z,2.53
2022-09-04T20:44:53.869Z,2.40
2022-09-04T20:52:41.852Z,3.08
2022-09-04T20:52:53.678Z,2.65
2022-09-04T20:53:44.267Z,3.25
2022-09-04T21:03:05.739Z,3.13
2022-09-04T21:03:26.223Z,2.70
2022-09-04T21:05:17.121Z,2.90
2022-09-04T21:07:54.715Z,3.20
2022-09-04T21:10:30.985Z,2.95
2022-09-04T21:13:14.663Z,2.88
2022-09-04T21:15:51.728Z,2.65
2022-09-04T21:18:46.503Z,2.85
2022-09-04T21:21:45.991Z,2.88
2022-09-04T21:24:33.485Z,3.00
2022-09-04T21:27:00.674Z,3.33
2022-09-04T21:29:46.704Z,3.00
2022-09-04T21:32:33.168Z,3.40
2022-09-04T21:35:06.672Z,3.28
2022-09-04T21:37:43.296Z,3.40
2022-09-04T21:40:25.810Z,3.17
2022-09-04T21:43:23.194Z,3.78
2022-09-04T21:48:33.209Z,2.95
2022-09-04T21:51:36.126Z,3.30
2022-09-04T21:54:03.687Z,3.60
2022-09-04T22:02:25.534Z,3.28
2022-09-04T22:02:46.279Z,3.35
2022-09-04T22:03:02.051Z,3.10
2022-09-04T22:05:46.091Z,3.22
2022-09-04T22:11:55.547Z,3.60
2022-09-04T22:13:39.299Z,3.63
2022-09-04T22:14:04.550Z,3.28
2022-09-04T22:16:35.110Z,3.65
2022-09-04T22:19:05.675Z,3.90
2022-09-04T22:21:43.837Z,3.45
2022-09-04T22:24:24.566Z,3.15
2022-09-04T22:27:11.820Z,3.67
2022-09-04T22:29:40.117Z,3.20
2022-09-04T22:32:25.645Z,3.35
2022-09-04T22:35:15.427Z,3.30
2022-09-04T22:37:45.636Z,3.63
2022-09-04T22:40:56.084Z,3.45
2022-09-04T22:43:25.241Z,3.22
2022-09-04T22:46:11.485Z,3.22
2022-09-04T22:49:12.332Z,3.05
2022-09-04T22:51:43.546Z,3.22
2022-09-04T22:54:11.022Z,3.22
2022-09-04T22:56:41.432Z,3.30
2022-09-04T22:59:26.760Z,3.90
2022-09-04T23:02:13.551Z,3.88
2022-09-04T23:05:00.073Z,3.80
2022-09-04T23:13:44.079Z,3.40
2022-09-04T23:13:56.778Z,3.30
2022-09-04T23:16:18.330Z,3.13
2022-09-04T23:26:33.909Z,3.45
2022-09-04T23:26:38.099Z,3.80
2022-09-04T23:26:46.443Z,3.60
2022-09-04T23:28:23.531Z,3.63
2022-09-04T23:30:53.595Z,3.88
2022-09-04T23:33:37.986Z,3.50
2022-09-04T23:36:33.143Z,3.85
2022-09-04T23:39:00.719Z,3.83
2022-09-04T23:41:33.793Z,3.42
2022-09-04T23:44:25.730Z,3.55
2022-09-04T23:46:56.314Z,4.22
2022-09-04T23:49:24.624Z,4.15
2022-09-04T23:51:51.956Z,4.10
2022-09-04T23:54:46.020Z,4.03
2022-09-04T23:57:25.887Z,3.80
